createdAt,value
2018-08-10T00:01:48.301Z,20.00
2018-08-10T00:04:17.069Z,20.10
2018-08-10T00:06:45.814Z,20.10
2018-08-10T00:09:14.310Z,19.90
2018-08-10T00:11:42.902Z,19.90
2018-08-10T00:14:11.637Z,19.90
2018-08-10T00:16:40.230Z,19.80
2018-08-10T00:19:09.114Z,19.90
2018-08-10T00:21:37.607Z,19.90
2018-08-10T00:24:06.171Z,20.00
2018-08-10T00:26:34.694Z,20.10
2018-08-10T00:29:03.268Z,20.00
2018-08-10T00:31:31.939Z,20.00
2018-08-10T00:34:00.711Z,19.90
2018-08-10T00:36:29.183Z,19.90
2018-08-10T00:38:57.695Z,19.70
2018-08-10T00:41:26.171Z,19.60
2018-08-10T00:43:54.690Z,19.50
2018-08-10T00:46:23.142Z,19.50
2018-08-10T00:48:51.895Z,19.40
2018-08-10T00:51:20.655Z,19.40
2018-08-10T00:53:49.173Z,19.30
2018-08-10T00:56:17.621Z,19.20
2018-08-10T00:58:46.103Z,19.20
2018-08-10T01:01:14.594Z,19.10
2018-08-10T01:03:43.101Z,19.10
2018-08-10T01:06:12.016Z,19.20
2018-08-10T01:08:40.535Z,19.30
2018-08-10T01:11:09.075Z,19.30
2018-08-10T01:13:37.643Z,19.20
2018-08-10T01:16:06.230Z,19.20
2018-08-10T01:18:34.748Z,19.10
2018-08-10T01:21:03.264Z,19.00
2018-08-10T01:23:31.764Z,18.90
2018-08-10T01:26:00.321Z,18.80
2018-08-10T01:28:28.903Z,18.80
2018-08-10T01:30:57.471Z,18.80
2018-08-10T01:33:25.976Z,18.70
2018-08-10T01:35:54.627Z,18.50
2018-08-10T01:38:23.462Z,18.20
2018-08-10T01:40:51.948Z,18.10
2018-08-10T01:43:20.487Z,18.30
2018-08-10T01:45:48.981Z,18.40
2018-08-10T01:48:17.458Z,18.40
2018-08-10T01:50:45.948Z,18.30
2018-08-10T01:53:15.147Z,18.50
2018-08-10T01:55:43.603Z,18.50
2018-08-10T01:58:12.416Z,18.50
2018-08-10T02:00:40.908Z,18.50
2018-08-10T02:03:09.711Z,18.50
2018-08-10T02:05:38.173Z,18.40
2018-08-10T02:08:07.059Z,18.00
2018-08-10T02:10:35.804Z,17.80
2018-08-10T02:13:04.367Z,17.60
2018-08-10T02:15:32.894Z,17.40
2018-08-10T02:18:01.400Z,17.50
2018-08-10T02:20:29.914Z,17.40
2018-08-10T02:22:58.476Z,17.40
2018-08-10T02:25:26.958Z,17.40
2018-08-10T02:27:55.482Z,17.40
2018-08-10T02:30:23.980Z,17.20
2018-08-10T02:32:52.824Z,17.10
2018-08-10T02:35:21.385Z,17.20
2018-08-10T02:37:49.866Z,17.20
2018-08-10T02:40:20.118Z,17.10
2018-08-10T02:42:49.369Z,17.00
2018-08-10T02:45:18.205Z,16.90
2018-08-10T02:47:47.356Z,17.00
2018-08-10T02:50:16.238Z,17.00
2018-08-10T02:52:46.050Z,16.80
2018-08-10T02:55:14.871Z,16.90
2018-08-10T02:57:43.786Z,16.80
2018-08-10T03:00:13.960Z,16.50
2018-08-10T03:02:44.819Z,16.60
2018-08-10T03:05:13.505Z,16.60
2018-08-10T03:07:42.360Z,16.70
2018-08-10T03:10:12.016Z,16.70
2018-08-10T03:12:40.502Z,16.70
2018-08-10T03:15:13.242Z,16.80
2018-08-10T03:17:42.004Z,16.70
2018-08-10T03:20:10.910Z,16.70
2018-08-10T03:22:39.782Z,16.70
2018-08-10T03:25:09.640Z,16.50
2018-08-10T03:27:38.664Z,16.30
2018-08-10T03:30:08.794Z,16.30
2018-08-10T03:32:37.483Z,16.20
2018-08-10T03:35:06.314Z,16.40
2018-08-10T03:37:34.919Z,16.20
2018-08-10T03:40:03.765Z,16.00
2018-08-10T03:42:32.275Z,15.90
2018-08-10T03:45:01.108Z,16.00
2018-08-10T03:47:29.599Z,15.80
2018-08-10T03:49:58.189Z,15.80
2018-08-10T03:52:26.629Z,15.80
2018-08-10T03:54:55.186Z,15.90
2018-08-10T03:57:23.709Z,15.80
2018-08-10T03:59:52.227Z,15.70
2018-08-10T04:02:20.778Z,15.60
2018-08-10T04:04:49.548Z,15.60
2018-08-10T04:07:18.054Z,15.60
2018-08-10T04:09:46.923Z,15.50
2018-08-10T04:12:15.676Z,15.60
2018-08-10T04:14:44.265Z,15.70
2018-08-10T04:17:17.745Z,15.70
2018-08-10T04:19:46.270Z,15.60
2018-08-10T04:22:14.759Z,15.50
2018-08-10T04:24:43.291Z,15.40
2018-08-10T04:27:11.843Z,15.40
2018-08-10T04:29:40.473Z,15.40
2018-08-10T04:32:09.051Z,15.50
2018-08-10T04:34:37.563Z,15.40
2018-08-10T04:37:06.528Z,15.30
2018-08-10T04:39:35.070Z,15.30
2018-08-10T04:42:03.636Z,15.30
2018-08-10T04:44:32.143Z,15.30
2018-08-10T04:47:00.716Z,15.30
2018-08-10T04:49:29.239Z,15.30
2018-08-10T04:51:57.770Z,15.30
2018-08-10T04:54:26.302Z,15.40
2018-08-10T04:56:55.101Z,15.40
2018-08-10T04:59:23.609Z,15.40
2018-08-10T05:01:52.151Z,15.60
2018-08-10T05:04:20.655Z,15.40
2018-08-10T05:06:49.408Z,15.50
2018-08-10T05:09:17.955Z,15.70
2018-08-10T05:11:46.431Z,15.80
2018-08-10T05:14:14.915Z,15.90
2018-08-10T05:16:43.850Z,15.80
2018-08-10T05:19:12.411Z,15.90
2018-08-10T05:21:40.966Z,16.00
2018-08-10T05:24:09.597Z,16.20
2018-08-10T05:26:38.103Z,16.40
2018-08-10T05:29:06.827Z,16.60
2018-08-10T05:31:35.370Z,16.60
2018-08-10T05:34:03.970Z,16.70
2018-08-10T05:36:32.515Z,16.70
2018-08-10T05:39:01.282Z,16.80
2018-08-10T05:41:30.081Z,16.80
2018-08-10T05:43:58.578Z,16.90
2018-08-10T05:46:27.135Z,16.90
2018-08-10T05:48:55.859Z,17.00
2018-08-10T05:51:24.326Z,17.00
2018-08-10T05:53:52.789Z,17.10
2018-08-10T05:56:21.249Z,17.10
2018-08-10T05:58:49.717Z,17.20
2018-08-10T06:01:18.211Z,17.30
2018-08-10T06:03:46.726Z,17.30
2018-08-10T06:06:15.165Z,17.40
2018-08-10T06:08:43.883Z,17.40
2018-08-10T06:11:12.503Z,17.50
2018-08-10T06:13:41.039Z,17.60
2018-08-10T06:16:09.794Z,17.70
2018-08-10T06:18:38.514Z,17.70
2018-08-10T06:21:07.046Z,17.70
2018-08-10T06:23:35.508Z,17.80
2018-08-10T06:26:04.344Z,17.90
2018-08-10T06:28:32.802Z,18.00
2018-08-10T06:31:01.298Z,18.10
2018-08-10T06:33:30.004Z,18.10
2018-08-10T06:35:58.490Z,18.20
2018-08-10T06:38:26.937Z,18.30
2018-08-10T06:40:55.422Z,18.50
2018-08-10T06:43:23.883Z,18.60
2018-08-10T06:45:52.387Z,18.70
2018-08-10T06:48:20.843Z,18.60
2018-08-10T06:50:49.441Z,18.90
2018-08-10T06:53:18.114Z,19.10
2018-08-10T06:55:46.649Z,19.00
2018-08-10T06:58:15.358Z,19.00
2018-08-10T07:00:43.917Z,19.10
2018-08-10T07:03:12.348Z,19.30
2018-08-10T07:05:41.146Z,19.40
2018-08-10T07:08:09.648Z,19.50
2018-08-10T07:10:38.492Z,19.70
2018-08-10T07:13:07.046Z,19.60
2018-08-10T07:15:35.791Z,19.60
2018-08-10T07:18:04.802Z,19.60
2018-08-10T07:20:33.296Z,19.60
2018-08-10T07:23:01.746Z,19.80
2018-08-10T07:25:31.122Z,19.90
2018-08-10T07:28:00.079Z,20.10
2018-08-10T07:30:28.590Z,20.30
2018-08-10T07:32:57.060Z,20.20
2018-08-10T07:35:25.874Z,20.40
2018-08-10T07:37:54.331Z,20.40
2018-08-10T07:40:27.807Z,20.60
2018-08-10T07:42:56.495Z,20.90
2018-08-10T07:45:24.966Z,21.00
2018-08-10T07:47:53.440Z,20.80
2018-08-10T07:50:21.940Z,20.70
2018-08-10T07:52:50.391Z,20.30
2018-08-10T07:55:18.869Z,20.60
2018-08-10T07:57:47.598Z,21.10
2018-08-10T08:00:16.136Z,21.40
2018-08-10T08:02:44.628Z,21.70
2018-08-10T08:05:13.150Z,21.80
2018-08-10T08:07:41.621Z,21.80
2018-08-10T08:10:10.133Z,21.60
2018-08-10T08:12:38.655Z,21.60
2018-08-10T08:15:07.146Z,21.50
2018-08-10T08:17:35.954Z,21.60
2018-08-10T08:20:05.311Z,21.80
2018-08-10T08:22:33.822Z,22.10
2018-08-10T08:25:02.327Z,22.10
2018-08-10T08:27:30.807Z,22.20
2018-08-10T08:29:59.593Z,22.40
2018-08-10T08:32:28.115Z,22.50
2018-08-10T08:34:56.747Z,22.60
2018-08-10T08:37:25.163Z,22.70
2018-08-10T08:40:13.542Z,22.40
2018-08-10T08:42:43.618Z,21.70
2018-08-10T08:45:45.719Z,21.80
2018-08-10T08:48:14.124Z,22.00
2018-08-10T08:50:44.023Z,22.20
2018-08-10T08:53:12.688Z,22.40
2018-08-10T08:55:46.738Z,22.60
2018-08-10T08:58:15.861Z,23.00
2018-08-10T09:00:44.415Z,23.30
2018-08-10T09:03:24.678Z,23.20
2018-08-10T09:05:53.268Z,23.20
2018-08-10T09:08:22.019Z,22.90
2018-08-10T09:10:50.892Z,21.90
2018-08-10T09:13:19.423Z,22.60
2018-08-10T09:15:47.973Z,22.90
2018-08-10T09:18:16.548Z,23.20
2018-08-10T09:20:45.025Z,23.50
2018-08-10T09:23:13.607Z,23.60
2018-08-10T09:25:42.143Z,23.70
2018-08-10T09:28:10.773Z,23.70
2018-08-10T09:30:39.299Z,23.90
2018-08-10T09:33:08.137Z,23.90
2018-08-10T09:35:36.672Z,23.90
2018-08-10T09:38:05.345Z,24.00
2018-08-10T09:40:33.815Z,24.20
2018-08-10T09:43:02.550Z,24.00
2018-08-10T09:45:31.322Z,23.90
2018-08-10T09:47:59.835Z,24.00
2018-08-10T09:50:28.301Z,24.20
2018-08-10T09:52:59.666Z,24.30
2018-08-10T09:55:33.007Z,24.20
2018-08-10T09:58:07.902Z,24.00
2018-08-10T10:00:41.914Z,24.00
2018-08-10T10:03:16.808Z,24.30
2018-08-10T10:05:45.993Z,24.30
2018-08-10T10:08:14.822Z,24.20
2018-08-10T10:10:43.301Z,24.30
2018-08-10T10:13:11.874Z,24.30
2018-08-10T10:15:40.630Z,24.50
2018-08-10T10:18:10.757Z,24.90
2018-08-10T10:20:39.302Z,24.70
2018-08-10T10:23:08.152Z,24.90
2018-08-10T10:25:36.706Z,24.90
2018-08-10T10:28:05.478Z,24.60
2018-08-10T10:30:34.067Z,24.60
2018-08-10T10:33:02.614Z,24.70
2018-08-10T10:35:31.186Z,24.80
2018-08-10T10:37:59.661Z,25.00
2018-08-10T10:40:28.231Z,25.40
2018-08-10T10:42:56.761Z,25.60
2018-08-10T10:45:25.283Z,25.30
2018-08-10T10:47:53.758Z,25.40
2018-08-10T10:50:22.242Z,25.30
2018-08-10T10:52:50.727Z,25.30
2018-08-10T10:55:19.621Z,25.60
2018-08-10T10:57:48.098Z,25.50
2018-08-10T11:00:18.580Z,25.00
2018-08-10T11:02:48.202Z,25.00
2018-08-10T11:05:16.771Z,25.20
2018-08-10T11:07:45.339Z,25.10
2018-08-10T11:10:15.254Z,25.20
2018-08-10T11:12:43.739Z,25.30
2018-08-10T11:15:13.121Z,25.20
2018-08-10T11:17:41.638Z,25.50
2018-08-10T11:20:11.321Z,25.60
2018-08-10T11:22:40.602Z,25.90
2018-08-10T11:25:10.828Z,25.70
2018-08-10T11:27:40.011Z,25.60
2018-08-10T11:30:09.275Z,25.20
2018-08-10T11:32:37.795Z,25.00
2018-08-10T11:35:06.666Z,25.00
2018-08-10T11:37:35.144Z,25.70
2018-08-10T11:40:04.831Z,26.00
2018-08-10T11:42:33.369Z,25.80
2018-08-10T11:45:01.955Z,25.50
2018-08-10T11:47:30.455Z,25.40
2018-08-10T11:49:59.210Z,25.30
2018-08-10T11:52:27.739Z,25.40
2018-08-10T11:54:56.223Z,25.40
2018-08-10T11:57:24.721Z,25.30
2018-08-10T11:59:53.544Z,25.60
2018-08-10T12:02:22.049Z,25.90
2018-08-10T12:04:50.550Z,25.80
2018-08-10T12:07:19.070Z,25.70
2018-08-10T12:09:47.584Z,25.50
2018-08-10T12:12:16.050Z,25.70
2018-08-10T12:14:44.537Z,26.00
2018-08-10T12:17:13.030Z,26.00
2018-08-10T12:19:41.801Z,26.00
2018-08-10T12:22:10.566Z,26.00
2018-08-10T12:24:39.146Z,26.00
2018-08-10T12:27:08.359Z,26.50
2018-08-10T12:29:36.834Z,26.60
2018-08-10T12:32:05.324Z,26.40
2018-08-10T12:34:34.094Z,26.50
2018-08-10T12:37:02.594Z,26.80
2018-08-10T12:39:31.075Z,26.90
2018-08-10T12:41:59.955Z,26.90
2018-08-10T12:44:28.495Z,27.00
2018-08-10T12:46:56.993Z,26.30
2018-08-10T12:49:25.472Z,26.30
2018-08-10T12:51:53.982Z,26.80
2018-08-10T12:54:22.488Z,26.50
2018-08-10T12:56:50.980Z,26.60
2018-08-10T12:59:19.473Z,26.30
2018-08-10T13:01:48.027Z,26.00
2018-08-10T13:04:16.529Z,25.80
2018-08-10T13:06:45.008Z,25.60
2018-08-10T13:09:14.127Z,25.10
2018-08-10T13:11:43.023Z,24.90
2018-08-10T13:14:11.479Z,25.10
2018-08-10T13:16:39.971Z,25.60
2018-08-10T13:19:08.459Z,25.90
2018-08-10T13:21:37.300Z,26.00
2018-08-10T13:24:05.858Z,26.30
2018-08-10T13:26:34.338Z,26.50
2018-08-10T13:29:02.949Z,26.50
2018-08-10T13:31:31.447Z,26.70
2018-08-10T13:34:00.185Z,26.40
2018-08-10T13:36:28.804Z,26.60
2018-08-10T13:38:57.299Z,27.10
2018-08-10T13:41:26.096Z,27.40
2018-08-10T13:43:54.551Z,27.00
2018-08-10T13:46:23.107Z,26.80
2018-08-10T13:48:51.594Z,27.00
2018-08-10T13:51:20.097Z,26.90
2018-08-10T13:53:48.602Z,26.70
2018-08-10T13:56:17.378Z,26.00
2018-08-10T13:58:45.994Z,25.50
2018-08-10T14:01:14.723Z,25.30
2018-08-10T14:03:43.231Z,25.70
2018-08-10T14:06:11.863Z,25.70
2018-08-10T14:08:40.347Z,25.90
2018-08-10T14:11:09.218Z,25.90
2018-08-10T14:13:37.866Z,25.90
2018-08-10T14:16:06.379Z,26.10
2018-08-10T14:18:35.161Z,26.10
2018-08-10T14:21:03.724Z,25.90
2018-08-10T14:23:32.191Z,25.70
2018-08-10T14:26:00.694Z,25.50
2018-08-10T14:28:29.246Z,25.30
2018-08-10T14:30:57.745Z,25.20
2018-08-10T14:33:26.240Z,25.10
2018-08-10T14:35:54.726Z,25.10
2018-08-10T14:38:23.199Z,25.10
2018-08-10T14:40:52.039Z,25.20
2018-08-10T14:43:20.526Z,25.50
2018-08-10T14:45:49.022Z,25.40
2018-08-10T14:48:17.481Z,25.30
2018-08-10T14:50:46.050Z,25.40
2018-08-10T14:53:14.518Z,25.30
2018-08-10T14:55:43.047Z,25.10
2018-08-10T14:58:11.579Z,25.60
2018-08-10T15:00:40.116Z,26.10
2018-08-10T15:03:08.592Z,26.30
2018-08-10T15:05:37.073Z,26.50
2018-08-10T15:08:06.323Z,26.70
2018-08-10T15:10:34.807Z,26.80
2018-08-10T15:13:03.812Z,26.60
2018-08-10T15:15:32.178Z,25.70
2018-08-10T15:18:00.668Z,25.50
2018-08-10T15:20:29.142Z,25.90
2018-08-10T15:22:57.680Z,26.10
2018-08-10T15:25:26.177Z,26.10
2018-08-10T15:27:54.695Z,26.30
2018-08-10T15:30:24.299Z,26.70
2018-08-10T15:32:52.815Z,26.90
2018-08-10T15:35:21.297Z,26.70
2018-08-10T15:37:49.839Z,27.00
2018-08-10T15:40:19.573Z,26.70
2018-08-10T15:42:48.128Z,26.60
2018-08-10T15:45:17.550Z,26.30
2018-08-10T15:47:46.451Z,25.90
2018-08-10T15:50:15.116Z,25.90
2018-08-10T15:52:45.181Z,26.30
2018-08-10T15:55:14.442Z,27.00
2018-08-10T15:57:43.321Z,27.20
2018-08-10T16:00:17.510Z,27.40
2018-08-10T16:02:46.111Z,27.20
2018-08-10T16:05:14.682Z,27.10
2018-08-10T16:07:44.141Z,26.40
2018-08-10T16:10:12.793Z,25.30
2018-08-10T16:12:41.565Z,25.30
2018-08-10T16:15:12.590Z,25.30
2018-08-10T16:17:41.211Z,25.40
2018-08-10T16:20:11.618Z,25.10
2018-08-10T16:22:40.129Z,25.20
2018-08-10T16:25:10.111Z,25.00
2018-08-10T16:27:38.783Z,25.00
2018-08-10T16:30:09.536Z,25.00
2018-08-10T16:32:38.723Z,24.80
2018-08-10T16:35:08.989Z,24.60
2018-08-10T16:37:37.675Z,24.80
2018-08-10T16:40:07.222Z,24.80
2018-08-10T16:42:36.118Z,24.70
2018-08-10T16:45:04.862Z,24.70
2018-08-10T16:47:33.774Z,24.80
2018-08-10T16:50:02.294Z,24.70
2018-08-10T16:52:31.144Z,24.80
2018-08-10T16:54:59.686Z,25.00
2018-08-10T16:57:28.442Z,25.10
2018-08-10T16:59:56.967Z,25.10
2018-08-10T17:02:25.682Z,25.20
2018-08-10T17:04:54.824Z,25.10
2018-08-10T17:07:23.320Z,25.00
2018-08-10T17:09:51.982Z,25.00
2018-08-10T17:12:20.450Z,24.90
2018-08-10T17:14:48.957Z,24.80
2018-08-10T17:17:17.414Z,24.70
2018-08-10T17:19:45.984Z,24.70
2018-08-10T17:22:14.503Z,24.80
2018-08-10T17:24:43.036Z,24.80
2018-08-10T17:27:11.523Z,24.90
2018-08-10T17:29:40.521Z,24.90
2018-08-10T17:32:09.603Z,24.70
2018-08-10T17:34:38.107Z,24.60
2018-08-10T17:37:06.615Z,24.40
2018-08-10T17:39:35.458Z,24.30
2018-08-10T17:42:04.540Z,24.10
2018-08-10T17:44:39.423Z,24.00
2018-08-10T17:47:07.958Z,23.90
2018-08-10T17:49:36.506Z,23.90
2018-08-10T17:52:05.012Z,23.90
2018-08-10T17:54:33.572Z,23.90
2018-08-10T17:57:02.074Z,23.90
2018-08-10T17:59:31.276Z,23.80
2018-08-10T18:01:59.763Z,23.70
2018-08-10T18:04:28.537Z,23.70
2018-08-10T18:06:57.018Z,23.70
2018-08-10T18:09:25.538Z,23.60
2018-08-10T18:11:54.018Z,23.60
2018-08-10T18:14:22.783Z,23.50
2018-08-10T18:16:51.295Z,23.40
2018-08-10T18:19:19.831Z,23.40
2018-08-10T18:21:48.341Z,23.40
2018-08-10T18:24:16.901Z,23.20
2018-08-10T18:26:45.730Z,23.20
2018-08-10T18:29:14.662Z,23.10
2018-08-10T18:31:43.190Z,23.10
2018-08-10T18:34:11.789Z,23.00
2018-08-10T18:36:40.293Z,23.00
2018-08-10T18:39:12.106Z,22.90
2018-08-10T18:41:41.005Z,22.80
2018-08-10T18:44:09.874Z,22.70
2018-08-10T18:46:39.496Z,22.60
2018-08-10T18:49:08.367Z,22.50
2018-08-10T18:51:36.971Z,22.50
2018-08-10T18:54:06.044Z,22.40
2018-08-10T18:56:34.672Z,22.10
2018-08-10T18:59:03.562Z,21.60
2018-08-10T19:01:32.128Z,21.50
2018-08-10T19:04:00.958Z,21.40
2018-08-10T19:06:29.558Z,21.50
2018-08-10T19:08:58.136Z,21.40
2018-08-10T19:11:26.654Z,21.40
2018-08-10T19:13:55.429Z,21.30
2018-08-10T19:16:30.709Z,21.30
2018-08-10T19:18:59.200Z,21.30
2018-08-10T19:21:27.699Z,21.30
2018-08-10T19:23:56.211Z,21.00
2018-08-10T19:26:25.322Z,20.90
2018-08-10T19:28:53.794Z,20.70
2018-08-10T19:31:22.284Z,20.70
2018-08-10T19:33:51.075Z,20.60
2018-08-10T19:36:19.613Z,20.60
2018-08-10T19:38:48.443Z,20.60
2018-08-10T19:41:16.962Z,20.60
2018-08-10T19:43:45.467Z,20.50
2018-08-10T19:46:14.015Z,20.40
2018-08-10T19:48:42.579Z,20.30
2018-08-10T19:51:11.119Z,20.40
2018-08-10T19:53:39.963Z,20.40
2018-08-10T19:56:08.549Z,20.50
2018-08-10T19:58:36.974Z,20.30
2018-08-10T20:01:05.474Z,20.20
2018-08-10T20:03:33.974Z,19.90
2018-08-10T20:06:02.479Z,20.00
2018-08-10T20:08:31.103Z,19.80
2018-08-10T20:10:59.631Z,19.90
2018-08-10T20:13:28.118Z,20.00
2018-08-10T20:15:56.658Z,20.20
2018-08-10T20:18:25.131Z,20.10
2018-08-10T20:20:53.901Z,20.20
2018-08-10T20:23:22.426Z,20.10
2018-08-10T20:25:51.226Z,20.00
2018-08-10T20:28:19.710Z,19.70
2018-08-10T20:30:48.193Z,19.80
2018-08-10T20:33:16.716Z,19.80
2018-08-10T20:35:45.191Z,19.60
2018-08-10T20:38:13.974Z,19.50
2018-08-10T20:40:43.195Z,19.50
2018-08-10T20:43:11.740Z,19.50
2018-08-10T20:45:40.254Z,19.50
2018-08-10T20:48:08.779Z,19.50
2018-08-10T20:50:37.375Z,19.40
2018-08-10T20:53:06.166Z,19.40
2018-08-10T20:55:35.011Z,19.20
2018-08-10T20:58:03.584Z,19.30
2018-08-10T21:00:32.106Z,19.20
2018-08-10T21:03:00.709Z,19.20
2018-08-10T21:05:29.514Z,19.10
2018-08-10T21:07:58.030Z,19.40
2018-08-10T21:10:26.546Z,19.40
2018-08-10T21:12:55.067Z,19.10
2018-08-10T21:15:23.841Z,18.90
2018-08-10T21:17:52.957Z,18.80
2018-08-10T21:20:21.448Z,18.70
2018-08-10T21:22:49.967Z,18.60
2018-08-10T21:25:18.500Z,18.60
2018-08-10T21:27:47.016Z,18.60
2018-08-10T21:30:17.699Z,18.60
2018-08-10T21:32:46.378Z,18.60
2018-08-10T21:35:14.912Z,18.60
2018-08-10T21:37:43.491Z,18.50
2018-08-10T21:40:12.227Z,18.60
2018-08-10T21:42:41.986Z,18.60
2018-08-10T21:45:10.539Z,18.60
2018-08-10T21:47:39.109Z,18.50
2018-08-10T21:50:10.650Z,18.50
2018-08-10T21:52:39.551Z,18.60
2018-08-10T21:55:08.120Z,18.70
2018-08-10T21:57:36.630Z,18.80
2018-08-10T22:01:12.996Z,18.80
2018-08-10T22:03:41.528Z,18.60
2018-08-10T22:06:10.051Z,18.60
2018-08-10T22:08:38.571Z,18.50
2018-08-10T22:11:07.368Z,18.30
2018-08-10T22:13:41.226Z,18.30
2018-08-10T22:16:15.123Z,18.10
2018-08-10T22:18:49.359Z,18.10
2018-08-10T22:21:17.883Z,18.00
2018-08-10T22:23:46.651Z,18.00
2018-08-10T22:26:15.976Z,17.90
2018-08-10T22:28:44.428Z,18.00
2018-08-10T22:31:13.289Z,18.10
2018-08-10T22:33:41.808Z,18.00
2018-08-10T22:36:10.637Z,18.00
2018-08-10T22:38:39.135Z,18.30
2018-08-10T22:41:07.795Z,18.30
2018-08-10T22:43:36.302Z,18.10
2018-08-10T22:46:04.811Z,17.90
2018-08-10T22:48:33.303Z,17.60
2018-08-10T22:51:01.770Z,17.50
2018-08-10T22:53:30.307Z,17.40
2018-08-10T22:55:59.093Z,17.30
2018-08-10T22:58:27.578Z,17.40
2018-08-10T23:00:56.062Z,17.50
2018-08-10T23:03:24.583Z,17.50
2018-08-10T23:05:53.080Z,17.60
2018-08-10T23:08:21.630Z,17.60
2018-08-10T23:10:50.198Z,17.50
2018-08-10T23:13:18.683Z,17.40
2018-08-10T23:15:47.839Z,17.40
2018-08-10T23:18:16.386Z,17.40
2018-08-10T23:20:44.863Z,17.30
2018-08-10T23:23:13.390Z,17.40
2018-08-10T23:25:42.152Z,17.40
2018-08-10T23:28:10.977Z,17.80
2018-08-10T23:30:39.514Z,17.60
2018-08-10T23:33:08.048Z,17.60
2018-08-10T23:35:36.770Z,17.60
2018-08-10T23:38:05.675Z,17.80
2018-08-10T23:40:34.165Z,17.70
2018-08-10T23:43:02.708Z,17.40
2018-08-10T23:45:31.255Z,17.40
2018-08-10T23:47:59.780Z,17.60
2018-08-10T23:50:28.592Z,17.50
2018-08-10T23:52:57.098Z,17.40
2018-08-10T23:55:25.706Z,17.20
2018-08-10T23:57:54.566Z,17.10
